New Harbor, ME

43° 52' 34"N, 69° 29' 40"W, Elevation 65 ft.
Eastern Time

Hourly observations for the last 72 hours

Date Time Temperature (°F) Humi-
dity

(%)
Wind
(mph)
Pressure Rain (in) Sun
(W/m2)
ET
(in)
Air Dew 6 Hour 1 Hr 3 Hr 6 Hr Day
Alt
(in)
Sea
Level

(mb)
Max Min
15 00:00 17.6 7.1 63 WNW 7 G 15 30.52 1033.5 0.00 0 0.052
14 23:00 17.9 7.1 62 NW 3 G 17 30.50 1032.8 0.00 0 0.051
14 22:00 18.1 6.9 61 NW 6 G 14 30.49 1032.4 0.00 0 0.050
14 21:00 18.7 6.7 59 WNW 6 G 13 30.48 1032.1 0.00 0 0.049
14 20:00 19.2 6.5 57 WNW 7 G 15 30.45 1031.2 0.00 0 0.048
14 19:00 19.8 5.8 25.7 19.7 54 WNW 11 G 22 30.42 1030.1 0.00 0 0.047
14 18:00 20.0 5.2 52 WNW 10 G 23 30.38 1028.7 0.00 0 0.046
14 17:00 20.5 5.2 51 NW 7 G 23 30.35 1027.7 0.00 0 0.045
14 16:00 21.3 5.1 49 W 3 G 24 30.31 1026.3 0.00 7 0.043
14 15:00 23.1 6.3 48 W 8 G 18 30.27 1025.1 0.00 74 0.040
14 14:00 24.0 4.7 43 NW 9 G 23 30.23 1023.7 0.00 83 0.037
14 13:00 25.3 5.9 26.7 23.1 43 WNW 8 G 24 30.20 1022.8 0.00 172 0.032
14 12:00 25.6 4.6 40 NNW 12 G 30 30.17 1021.6 0.00 359 0.025
14 11:00 26.5 6.5 42 WNW 10 G 20 30.15 1021.1 0.00 452 0.018
14 10:00 24.4 7.0 47 W 14 G 29 30.12 1020.1 0.00 37 0.015
14 09:00 23.7 8.2 51 WNW 11 G 29 30.12 1020.1 0.00 32 0.013
14 08:00 23.4 7.9 51 W 15 G 26 30.10 1019.3 0.00 25 0.011
14 07:00 23.2 9.8 34.3 23.2 56 WNW 8 G 26 30.06 1018.0 0.00 12 0.010
14 06:00 24.0 11.0 57 W 8 G 19 30.02 1016.7 0.00 0 0.009
14 05:00 24.6 10.7 55 WNW 7 G 17 30.00 1015.8 0.00 0 0.007
14 04:00 25.3 11.8 56 W 6 G 18 29.96 1014.6 0.00 0 0.005
14 03:00 26.5 11.2 52 WNW 13 G 27 29.93 1013.5 0.00 0 0.003
14 02:00 29.6 16.2 57 NW 12 G 27 29.89 1012.1 0.00 0 0.001
14 01:00 34.3 26.2 38.8 34.3 72 WNW 4 G 16 29.83 1010.4 0.00 0 0.000
14 00:00 36.6 28.1 71 WNW 10 G 20 29.80 1009.1 1.29 0 0.005
13 23:00 38.0 33.6 84 WSW 5 G 14 29.76 1007.7 1.29 0 0.005
13 22:00 37.5 34.8 90 W 2 G 4 29.73 1006.6 1.29 0 0.005
13 21:00 38.5 35.3 88 WNW 5 G 13 29.71 1006.0 1.29 0 0.005
13 20:00 38.6 37.0 94 NW 6 G 13 29.69 1005.3 1.29 0 0.005
13 19:00 38.6 37.3 49.5 38.3 95 NNW 5 G 14 29.64 1003.8 0.01 0.35 1.29 0 0.005
13 18:00 38.6 37.3 95 NW 8 G 19 29.64 1003.6 1.29 0 0.005
13 17:00 40.1 38.5 94 NW 10 G 17 29.60 1002.4 0.01 1.29 0 0.005
13 16:00 49.1 48.0 96 N 4 G 9 29.59 1002.1 0.04 0.34 1.28 5 0.005
13 15:00 49.1 48.0 96 NNE 2 G 8 29.65 1004.1 0.14 1.24 19 0.005
13 14:00 49.3 48.2 96 ESE 5 G 9 29.71 1006.3 0.16 1.10 18 0.005
13 13:00 49.5 48.4 49.7 41.8 96 SSE 7 G 25 29.80 1009.3 0.16 0.46 0.73 0.94 14 0.004
13 12:00 49.7 48.6 96 S 12 G 28 29.86 1011.1 0.16 0.78 16 0.003
13 11:00 48.2 47.1 96 SSE 9 G 21 29.92 1013.3 0.14 0.62 18 0.003
13 10:00 46.0 44.6 95 ESE 6 G 12 30.01 1016.4 0.11 0.27 0.48 14 0.003
13 09:00 44.5 43.2 95 SE 6 G 15 30.09 1018.9 0.11 0.37 18 0.003
13 08:00 42.2 40.3 93 SE 5 G 16 30.14 1020.7 0.05 0.26 9 0.003
13 07:00 42.2 40.0 44.6 38.9 92 SSE 7 G 18 30.17 1021.8 0.05 0.18 0.21 0.21 0 0.003
13 06:00 40.1 38.5 94 S 9 G 16 30.22 1023.4 0.07 0.16 0 0.003
13 05:00 39.1 37.0 92 ENE 1 G 3 30.25 1024.5 0.06 0.09 0 0.003
13 04:00 40.0 37.6 91 Calm 30.26 1024.8 0.02 0.03 0.03 0 0.003
13 03:00 41.3 37.1 85 SSW 1 G 5 30.29 1025.6 0.01 0.01 0 0.002
13 02:00 43.4 36.0 75 W 1 G 9 30.32 1026.9 0.00 0 0.001
13 01:00 44.5 33.5 44.6 30.0 65 SW 3 G 7 30.33 1027.3 0.00 0 0.000
13 00:00 42.2 35.5 77 S 5 G 8 30.35 1027.7 0.00 0 0.034
12 23:00 35.1 32.7 91 SSW 2 G 7 30.35 1027.8 0.00 0 0.034
12 22:00 32.1 29.2 89 Calm 30.37 1028.4 0.00 0 0.034
12 21:00 30.9 27.5 87 Calm 30.36 1028.2 0.00 0 0.034
12 20:00 30.5 26.5 85 Calm 30.36 1028.1 0.00 0 0.034
12 19:00 30.0 25.2 42.3 29.2 82 Calm 30.37 1028.6 0.00 0 0.034
12 18:00 29.9 24.8 81 Calm 30.39 1029.0 0.00 0 0.034
12 17:00 31.9 24.9 75 Calm 30.38 1028.8 0.00 0 0.034
12 16:00 38.2 25.9 61 WSW 1 G 8 30.37 1028.3 0.00 7 0.033
12 15:00 41.1 25.7 54 SSW 3 G 7 30.35 1028.0 0.00 42 0.031
12 14:00 41.6 22.3 46 W 4 G 8 30.34 1027.5 0.00 49 0.029
12 13:00 42.3 23.5 43.4 28.7 47 WSW 3 G 9 30.34 1027.4 0.00 137 0.024
12 12:00 42.1 21.8 44 SW 5 G 11 30.35 1027.9 0.00 355 0.017
12 11:00 39.4 19.8 45 W 3 G 10 30.37 1028.5 0.00 443 0.010
12 10:00 35.6 18.8 50 NW 2 G 8 30.38 1028.7 0.00 44 0.009
12 09:00 32.7 19.1 57 NW 4 G 12 30.37 1028.5 0.00 37 0.008
12 08:00 29.7 19.0 64 WNW 2 G 5 30.38 1028.7 0.00 28 0.007
12 07:00 28.7 18.1 29.3 26.9 64 WNW 2 G 7 30.36 1028.2 0.00 14 0.006
12 06:00 28.7 17.3 62 NNW 3 G 11 30.34 1027.6 0.00 0 0.005
12 05:00 28.4 17.0 62 WNW 3 G 8 30.33 1027.3 0.00 0 0.004
12 04:00 27.1 15.8 62 W 2 G 6 30.32 1026.8 0.00 0 0.003
12 03:00 27.4 15.7 61 W 1 G 5 30.31 1026.5 0.00 0 0.002
12 02:00 29.0 15.3 56 WNW 2 G 5 30.31 1026.3 0.00 0 0.001
12 01:00 28.4 14.7 31.1 26.0 56 W 2 G 7 30.29 1025.8 0.00 0 0.000

Data generated by WxSolution Version 1.9.1.5, Build 2018.05.20.